Time;durP1;ratioP1;P1;durP2;ratioP2;P2;SDS_P1;SDS_P2;PMS_P1;PMS_P2;Temp;Humidity;BMP_temperature;BMP_pressure;BME280_temperature;BME280_humidity;BME280_pressure;Samples;Min_cycle;Max_cycle;Signal;HPM_P1;HPM_P2
2022/04/12 00:00:29;;;;;;;6.47;3.05;;;5.90;99.90;;;;;;5120343;27;20183;-28
2022/04/12 00:02:55;;;;;;;6.68;2.90;;;5.90;99.90;;;;;;5103079;27;20475;-28
2022/04/12 00:05:21;;;;;;;5.95;3.00;;;5.90;99.90;;;;;;5103208;27;20114;-28
2022/04/12 00:07:47;;;;;;;5.65;3.25;;;5.90;99.90;;;;;;5138329;27;20043;-28
2022/04/12 00:10:14;;;;;;;4.50;2.72;;;5.90;99.90;;;;;;5138219;27;20039;-28
2022/04/12 00:12:40;;;;;;;5.70;3.08;;;5.90;99.90;;;;;;5138230;27;20125;-28
2022/04/12 00:15:08;;;;;;;5.25;3.33;;;5.80;99.90;;;;;;5137744;27;20054;-29
2022/04/12 00:20:21;;;;;;;5.60;3.30;;;5.80;99.90;;;;;;5138150;27;20050;-29
2022/04/12 00:22:47;;;;;;;8.52;3.17;;;5.70;99.90;;;;;;5119686;27;20047;-28
2022/04/12 00:25:13;;;;;;;4.13;3.40;;;5.70;99.90;;;;;;5138487;27;20102;-28
2022/04/12 00:27:40;;;;;;;5.93;3.03;;;5.70;99.90;;;;;;5137992;27;20496;-28
2022/04/12 00:30:08;;;;;;;3.90;2.90;;;5.70;99.90;;;;;;5137900;27;20056;-28
2022/04/12 00:32:34;;;;;;;6.27;3.50;;;5.70;99.90;;;;;;5102726;27;20442;-28
2022/04/12 00:35:00;;;;;;;6.65;3.30;;;5.70;99.90;;;;;;5137808;27;20072;-28
2022/04/12 00:37:27;;;;;;;9.40;3.75;;;5.60;99.90;;;;;;5119268;27;20047;-28
2022/04/12 00:39:53;;;;;;;6.20;3.30;;;5.70;99.90;;;;;;5138534;27;20096;-28
2022/04/12 00:42:19;;;;;;;6.93;3.40;;;5.60;99.90;;;;;;5137680;27;20079;-28
2022/04/12 00:44:46;;;;;;;7.07;3.77;;;5.60;99.90;;;;;;5137491;27;20475;-28
2022/04/12 00:47:11;;;;;;;9.60;3.97;;;5.70;99.90;;;;;;5119333;27;20039;-28
2022/04/12 00:49:37;;;;;;;6.45;3.30;;;5.60;99.90;;;;;;5119068;27;20377;-28
2022/04/12 00:52:04;;;;;;;8.65;3.85;;;5.50;99.90;;;;;;5137482;27;20075;-28
2022/04/12 00:54:33;;;;;;;8.52;3.72;;;5.50;99.90;;;;;;5137439;27;20477;-28
2022/04/12 00:56:59;;;;;;;10.30;3.47;;;5.60;99.90;;;;;;5119069;27;20047;-29
2022/04/12 00:59:25;;;;;;;7.78;3.55;;;5.50;99.90;;;;;;5137882;27;20393;-28
2022/04/12 01:01:52;;;;;;;7.97;4.65;;;5.50;99.90;;;;;;5137260;27;20050;-28
2022/04/12 01:04:18;;;;;;;7.07;3.83;;;5.50;99.90;;;;;;5118871;27;20055;-28
2022/04/12 01:06:44;;;;;;;7.03;4.00;;;5.50;99.90;;;;;;5119569;27;20050;-28
2022/04/12 01:09:10;;;;;;;4.78;3.40;;;5.40;99.90;;;;;;5137112;27;20054;-28
2022/04/12 01:11:39;;;;;;;11.77;4.75;;;5.30;99.90;;;;;;5137044;27;20092;-28
2022/04/12 01:14:05;;;;;;;8.65;4.25;;;5.40;99.90;;;;;;5136837;27;20058;-28
2022/04/12 01:16:31;;;;;;;11.10;4.55;;;5.30;99.90;;;;;;5137069;27;20043;-28
2022/04/12 01:18:57;;;;;;;6.90;4.40;;;5.30;99.90;;;;;;5136967;27;20043;-28
2022/04/12 01:21:23;;;;;;;8.60;4.15;;;5.20;99.90;;;;;;5101779;27;20054;-28
2022/04/12 01:23:55;;;;;;;8.40;3.80;;;5.20;99.90;;;;;;5118296;27;20083;-28
2022/04/12 01:26:21;;;;;;;9.07;4.35;;;5.20;99.90;;;;;;5136959;27;20463;-28
2022/04/12 01:28:47;;;;;;;8.63;4.23;;;5.10;99.90;;;;;;5136429;27;20090;-29
2022/04/12 01:31:12;;;;;;;7.33;4.33;;;5.10;99.90;;;;;;5118010;27;20047;-29
2022/04/12 01:33:38;;;;;;;7.80;4.50;;;5.10;99.90;;;;;;5136943;27;20047;-29
2022/04/12 01:36:04;;;;;;;9.00;4.30;;;5.10;99.90;;;;;;5101209;27;20254;-29
2022/04/12 01:38:30;;;;;;;7.40;4.57;;;5.00;99.90;;;;;;5101457;27;20047;-29
2022/04/12 01:40:56;;;;;;;6.10;3.80;;;4.90;99.90;;;;;;5118155;27;20499;-30
2022/04/12 01:43:21;;;;;;;6.20;4.73;;;5.00;99.90;;;;;;5101200;27;20043;-29
2022/04/12 01:45:47;;;;;;;6.93;4.30;;;4.90;99.90;;;;;;5136611;27;20042;-29
2022/04/12 01:48:13;;;;;;;9.80;5.03;;;4.80;99.90;;;;;;5117962;27;20043;-29
2022/04/12 01:50:38;;;;;;;9.43;4.87;;;4.80;99.90;;;;;;5136311;27;20129;-29
2022/04/12 01:53:05;;;;;;;10.10;4.70;;;4.80;99.90;;;;;;5100955;27;20406;-29
2022/04/12 01:55:30;;;;;;;13.40;4.80;;;4.80;99.90;;;;;;5117872;27;20043;-29
2022/04/12 01:57:56;;;;;;;8.67;5.23;;;4.80;99.90;;;;;;5118325;27;20108;-30
2022/04/12 02:00:22;;;;;;;8.13;4.70;;;4.70;99.90;;;;;;5101018;27;20047;-29
2022/04/12 02:02:47;;;;;;;10.60;5.23;;;4.70;99.90;;;;;;5136031;27;20043;-29
2022/04/12 02:05:13;;;;;;;10.10;5.13;;;4.70;99.90;;;;;;5136755;27;20042;-29
2022/04/12 02:07:42;;;;;;;7.87;5.03;;;4.70;99.90;;;;;;5117679;27;20038;-29
2022/04/12 02:10:09;;;;;;;9.63;5.90;;;4.70;99.90;;;;;;5101369;27;20413;-29
2022/04/12 02:12:36;;;;;;;9.40;5.83;;;4.60;99.90;;;;;;5136458;27;20095;-29
2022/04/12 02:15:04;;;;;;;7.00;5.13;;;4.60;99.90;;;;;;5117265;27;20058;-29
2022/04/12 02:17:30;;;;;;;8.23;5.47;;;4.50;99.90;;;;;;5135751;27;20039;-29
2022/04/12 02:19:56;;;;;;;10.02;5.03;;;4.50;99.90;;;;;;5118407;27;20042;-29
2022/04/12 02:22:21;;;;;;;10.30;4.88;;;4.50;99.90;;;;;;5136245;27;20480;-29
2022/04/12 02:24:47;;;;;;;9.60;5.63;;;4.40;99.90;;;;;;5117347;27;20043;-29
2022/04/12 02:27:13;;;;;;;12.27;5.47;;;4.50;99.90;;;;;;5101103;27;20133;-29
2022/04/12 02:29:39;;;;;;;8.27;5.65;;;4.40;99.90;;;;;;5135881;27;20387;-29
2022/04/12 02:32:06;;;;;;;10.32;6.50;;;4.40;99.90;;;;;;5135508;27;20047;-29
2022/04/12 02:34:32;;;;;;;12.95;5.78;;;4.40;99.90;;;;;;5135490;27;20043;-29
2022/04/12 02:36:58;;;;;;;14.37;6.00;;;4.30;99.90;;;;;;5135320;27;20049;-29
2022/04/12 02:39:24;;;;;;;11.32;5.90;;;4.30;99.90;;;;;;5135475;27;20508;-29
2022/04/12 02:41:49;;;;;;;12.27;6.00;;;4.20;99.90;;;;;;5116989;27;20047;-30
2022/04/12 02:44:16;;;;;;;10.23;7.00;;;4.30;99.90;;;;;;5135276;27;20430;-29
2022/04/12 02:46:41;;;;;;;11.88;6.30;;;4.30;99.90;;;;;;5135474;27;20046;-29
2022/04/12 02:49:07;;;;;;;11.95;6.10;;;4.30;99.90;;;;;;5135166;27;20047;-29
2022/04/12 02:51:33;;;;;;;10.43;6.50;;;4.30;99.90;;;;;;5135143;27;20047;-29
2022/04/12 02:53:59;;;;;;;12.38;6.45;;;4.30;99.90;;;;;;5135114;27;20389;-29
2022/04/12 02:56:24;;;;;;;9.93;5.80;;;4.30;99.90;;;;;;5135150;27;20047;-29
2022/04/12 02:58:50;;;;;;;8.87;6.20;;;4.30;99.90;;;;;;5135053;27;20072;-29
2022/04/12 03:01:16;;;;;;;12.05;6.70;;;4.30;99.90;;;;;;5116779;28;20042;-29
2022/04/12 03:03:42;;;;;;;11.60;6.93;;;4.40;99.90;;;;;;5116914;27;20404;-29
2022/04/12 03:06:07;;;;;;;10.75;6.85;;;4.40;99.90;;;;;;5116809;27;20046;-29
2022/04/12 03:08:33;;;;;;;12.40;6.63;;;4.40;99.90;;;;;;5134931;27;20377;-28
2022/04/12 03:10:59;;;;;;;12.37;6.37;;;4.40;99.90;;;;;;5099192;27;20476;-29
2022/04/12 03:13:24;;;;;;;10.10;7.23;;;4.40;99.90;;;;;;5116572;27;20152;-29
2022/04/12 03:15:50;;;;;;;11.82;6.90;;;4.40;99.90;;;;;;5115973;27;20129;-29
2022/04/12 03:18:17;;;;;;;8.32;6.00;;;4.40;99.90;;;;;;5134777;27;20130;-29
2022/04/12 03:20:43;;;;;;;10.07;6.78;;;4.30;99.90;;;;;;5100111;27;20130;-29
2022/04/12 03:23:09;;;;;;;11.25;7.18;;;4.40;99.90;;;;;;5116422;28;20050;-29
2022/04/12 03:25:35;;;;;;;8.77;6.57;;;4.40;99.90;;;;;;5134270;28;20392;-28
2022/04/12 03:28:01;;;;;;;14.23;7.30;;;4.40;99.90;;;;;;5116423;28;20043;-29
2022/04/12 03:30:27;;;;;;;9.37;6.97;;;4.40;99.90;;;;;;5100158;28;20136;-29
2022/04/12 03:32:53;;;;;;;11.93;7.70;;;4.30;99.90;;;;;;5116455;28;20554;-29
2022/04/12 03:35:19;;;;;;;11.27;6.93;;;4.30;99.90;;;;;;5116288;28;20035;-29
2022/04/12 03:37:45;;;;;;;12.75;7.50;;;4.30;99.90;;;;;;5134544;28;20047;-30
2022/04/12 03:40:11;;;;;;;10.18;7.00;;;4.40;99.90;;;;;;5100199;28;20103;-29
2022/04/12 03:42:37;;;;;;;13.77;7.85;;;4.40;99.90;;;;;;5134516;28;20049;-30
2022/04/12 03:45:03;;;;;;;13.32;8.00;;;4.40;99.90;;;;;;5099335;28;20043;-29
2022/04/12 03:47:29;;;;;;;12.77;7.93;;;4.30;99.90;;;;;;5116251;28;20139;-29
2022/04/12 03:49:55;;;;;;;10.63;7.93;;;4.40;99.90;;;;;;5134480;28;20523;-28
2022/04/12 03:52:20;;;;;;;16.48;9.48;;;4.40;99.90;;;;;;5135249;28;20092;-29
2022/04/12 03:54:46;;;;;;;10.38;7.88;;;4.40;99.90;;;;;;5116973;28;20112;-29
2022/04/12 03:57:12;;;;;;;11.80;8.07;;;4.40;99.90;;;;;;5134441;28;20042;-29
2022/04/12 03:59:37;;;;;;;13.80;9.37;;;4.40;99.90;;;;;;5116759;28;20112;-29
2022/04/12 04:02:03;;;;;;;14.18;8.95;;;4.40;99.90;;;;;;5134443;28;20066;-29
2022/04/12 04:04:29;;;;;;;13.98;8.05;;;4.40;99.90;;;;;;5116156;28;20053;-29
2022/04/12 04:06:55;;;;;;;12.57;8.75;;;4.40;99.90;;;;;;5134293;28;20086;-29
2022/04/12 04:09:21;;;;;;;11.32;8.35;;;4.40;99.90;;;;;;5116024;28;20050;-29
2022/04/12 04:11:48;;;;;;;13.23;8.80;;;4.40;99.90;;;;;;5134530;28;20448;-29
2022/04/12 04:14:15;;;;;;;12.93;8.83;;;4.40;99.90;;;;;;5134253;28;20543;-29
2022/04/12 04:16:42;;;;;;;12.82;8.65;;;4.40;99.90;;;;;;5115394;28;20086;-29
2022/04/12 04:19:09;;;;;;;12.77;9.23;;;4.40;99.90;;;;;;5116167;28;20126;-29
2022/04/12 04:21:38;;;;;;;15.95;9.63;;;4.40;99.90;;;;;;5134224;27;20108;-29
2022/04/12 04:24:05;;;;;;;15.07;9.47;;;4.40;99.90;;;;;;5138045;27;20046;-29
2022/04/12 04:26:31;;;;;;;14.98;9.07;;;4.40;99.90;;;;;;5137898;27;20464;-29
2022/04/12 04:28:56;;;;;;;14.88;10.70;;;4.40;99.90;;;;;;5137942;27;20043;-29
2022/04/12 04:31:22;;;;;;;14.48;10.18;;;4.40;99.90;;;;;;5119513;27;20047;-29
2022/04/12 04:33:48;;;;;;;14.25;9.18;;;4.40;99.90;;;;;;5119606;27;20392;-29
2022/04/12 04:36:14;;;;;;;14.02;9.85;;;4.40;99.90;;;;;;5119274;27;20054;-29
2022/04/12 04:38:40;;;;;;;14.90;9.60;;;4.30;99.90;;;;;;5102397;27;20050;-29
2022/04/12 04:41:05;;;;;;;18.27;10.18;;;4.40;99.90;;;;;;5119922;27;20039;-29
2022/04/12 04:43:31;;;;;;;12.80;10.10;;;4.30;99.90;;;;;;5119408;27;20484;-29
2022/04/12 04:45:57;;;;;;;13.93;9.68;;;4.40;99.90;;;;;;5137826;27;20130;-28
2022/04/12 04:48:23;;;;;;;13.95;9.25;;;4.30;99.90;;;;;;5119345;27;20042;-29
2022/04/12 04:50:48;;;;;;;14.75;9.60;;;4.30;99.90;;;;;;5119979;27;20039;-29
2022/04/12 04:53:14;;;;;;;16.58;10.52;;;4.30;99.90;;;;;;5119950;27;20047;-28
2022/04/12 04:55:43;;;;;;;13.88;9.63;;;4.30;99.90;;;;;;5137558;27;20472;-29
2022/04/12 04:58:09;;;;;;;13.30;9.27;;;4.30;99.90;;;;;;5118949;27;20054;-29
2022/04/12 05:00:36;;;;;;;15.52;9.85;;;4.30;99.90;;;;;;5137704;27;20086;-30
2022/04/12 05:03:03;;;;;;;13.15;9.13;;;4.30;99.90;;;;;;5102072;27;20498;-29
2022/04/12 05:05:29;;;;;;;16.05;10.00;;;4.30;99.90;;;;;;5137075;27;20043;-29
2022/04/12 05:07:57;;;;;;;12.95;8.75;;;4.30;99.90;;;;;;5137643;27;20058;-28
2022/04/12 05:10:26;;;;;;;16.03;9.20;;;4.40;99.90;;;;;;5137548;27;20043;-29
2022/04/12 05:12:52;;;;;;;11.87;8.37;;;4.30;99.90;;;;;;5136944;27;20039;-29
2022/04/12 05:15:18;;;;;;;11.82;8.68;;;4.40;99.90;;;;;;5101891;27;20062;-29
2022/04/12 05:17:51;;;;;;;11.90;8.83;;;4.40;99.90;;;;;;5119474;27;20047;-29
2022/04/12 05:20:19;;;;;;;14.43;8.75;;;4.50;99.90;;;;;;5136877;27;20054;-30
2022/04/12 05:22:45;;;;;;;13.68;9.60;;;4.60;99.90;;;;;;5136956;27;20129;-29
2022/04/12 05:25:11;;;;;;;11.98;8.73;;;4.70;99.90;;;;;;5118248;27;20629;-29
2022/04/12 05:27:37;;;;;;;13.07;9.00;;;4.80;99.90;;;;;;5118696;27;20118;-29
2022/04/12 05:30:07;;;;;;;17.40;8.65;;;5.00;99.90;;;;;;5136625;27;20050;-30
2022/04/12 05:32:33;;;;;;;13.00;8.73;;;5.10;99.90;;;;;;5136574;27;20111;-29
2022/04/12 05:34:59;;;;;;;13.35;8.75;;;5.30;99.90;;;;;;5117870;27;20039;-29
2022/04/12 05:37:25;;;;;;;14.88;9.23;;;5.50;99.90;;;;;;5137093;27;20053;-30
2022/04/12 05:39:51;;;;;;;11.43;8.10;;;5.60;99.90;;;;;;5137045;27;20111;-30
2022/04/12 05:42:16;;;;;;;13.55;8.23;;;5.80;99.90;;;;;;5118045;27;20043;-30
2022/04/12 05:44:44;;;;;;;14.30;9.15;;;5.90;99.90;;;;;;5136296;27;20053;-30
2022/04/12 05:47:13;;;;;;;11.05;8.38;;;6.00;99.90;;;;;;5136077;27;20377;-29
2022/04/12 05:49:39;;;;;;;11.20;8.25;;;6.10;99.90;;;;;;5101042;27;20161;-29
2022/04/12 05:52:05;;;;;;;15.18;8.45;;;6.20;99.90;;;;;;5117552;27;20082;-29
2022/04/12 05:54:31;;;;;;;13.27;8.75;;;6.20;99.90;;;;;;5118671;27;20043;-29
2022/04/12 05:56:56;;;;;;;13.90;8.98;;;6.20;97.80;;;;;;5117831;27;20434;-30
2022/04/12 05:59:22;;;;;;;12.23;9.27;;;6.20;99.90;;;;;;5101741;27;20040;-29
2022/04/12 06:01:49;;;;;;;12.07;8.50;;;6.30;99.90;;;;;;5136011;27;20104;-29
2022/04/12 06:04:16;;;;;;;16.83;9.25;;;6.40;99.90;;;;;;5100757;27;20043;-29
2022/04/12 06:06:42;;;;;;;12.48;8.43;;;6.50;99.90;;;;;;5135788;27;20441;-29
2022/04/12 06:09:08;;;;;;;11.50;8.18;;;6.50;96.40;;;;;;5117958;27;20054;-29
2022/04/12 06:11:34;;;;;;;12.15;8.50;;;6.60;99.90;;;;;;5117929;27;20361;-29
2022/04/12 06:14:00;;;;;;;13.30;8.32;;;6.70;91.60;;;;;;5135839;27;20054;-29
2022/04/12 06:16:26;;;;;;;11.50;8.07;;;6.70;70.20;;;;;;5117199;27;20051;-29
2022/04/12 06:18:53;;;;;;;15.85;8.75;;;6.90;52.80;;;;;;5117370;27;20477;-29
2022/04/12 06:21:19;;;;;;;14.10;8.25;;;6.90;30.30;;;;;;5136149;27;20388;-29
2022/04/12 06:23:45;;;;;;;11.70;8.63;;;7.00;20.30;;;;;;5117302;27;20051;-29
2022/04/12 06:26:11;;;;;;;12.88;8.13;;;7.10;17.50;;;;;;5135518;27;20039;-29
2022/04/12 06:28:37;;;;;;;13.00;8.02;;;7.20;11.50;;;;;;5100348;27;20047;-29
2022/04/12 06:31:02;;;;;;;11.35;7.93;;;7.30;1.00;;;;;;5135988;27;20099;-29
2022/04/12 06:33:28;;;;;;;13.52;7.28;;;7.30;1.00;;;;;;5135320;27;20133;-30
2022/04/12 06:35:54;;;;;;;14.75;8.80;;;7.40;1.00;;;;;;5100145;27;20138;-29
2022/04/12 06:38:20;;;;;;;10.68;7.78;;;7.50;1.00;;;;;;5135275;27;20126;-29
2022/04/12 06:40:48;;;;;;;12.48;8.15;;;7.60;1.00;;;;;;5135282;27;20082;-29
2022/04/12 06:43:14;;;;;;;12.43;8.70;;;7.70;1.00;;;;;;5117300;27;20046;-29
2022/04/12 06:45:40;;;;;;;11.18;8.63;;;7.80;1.00;;;;;;5134891;27;20046;-29
2022/04/12 06:48:07;;;;;;;11.43;7.57;;;7.90;1.00;;;;;;5135063;27;20047;-30
2022/04/12 06:50:33;;;;;;;13.07;7.93;;;8.00;1.00;;;;;;5134769;27;20431;-29
2022/04/12 06:52:59;;;;;;;14.48;7.70;;;8.00;1.00;;;;;;5100272;27;20054;-29
2022/04/12 06:55:26;;;;;;;12.43;7.72;;;8.00;1.00;;;;;;5116810;27;20047;-30
2022/04/12 06:57:52;;;;;;;13.18;8.13;;;8.10;1.00;;;;;;5134923;27;20039;-29
2022/04/12 07:00:19;;;;;;;14.85;8.57;;;8.10;1.00;;;;;;5135028;27;20050;-29
2022/04/12 07:02:46;;;;;;;16.35;8.60;;;8.20;1.00;;;;;;5117238;27;20047;-29
2022/04/12 07:05:15;;;;;;;12.18;8.50;;;8.30;1.00;;;;;;5134789;27;20065;-29
2022/04/12 07:07:42;;;;;;;16.38;8.70;;;8.30;1.00;;;;;;5117542;27;20054;-29
2022/04/12 07:10:11;;;;;;;12.18;8.77;;;8.40;1.00;;;;;;5135053;27;20434;-29
2022/04/12 07:12:37;;;;;;;12.02;9.10;;;8.40;1.00;;;;;;5134721;27;20043;-29
2022/04/12 07:15:04;;;;;;;12.60;8.82;;;8.50;1.00;;;;;;5134621;27;20050;-29
2022/04/12 07:17:30;;;;;;;13.77;8.95;;;8.50;1.00;;;;;;5134661;27;20047;-29
2022/04/12 07:19:56;;;;;;;14.00;8.40;;;8.50;1.00;;;;;;5134617;27;20050;-29
2022/04/12 07:22:22;;;;;;;13.98;8.82;;;8.60;1.00;;;;;;5134631;27;20043;-30
2022/04/12 07:24:48;;;;;;;13.48;7.75;;;8.60;1.00;;;;;;5116158;28;20043;-29
2022/04/12 07:27:14;;;;;;;12.90;8.63;;;8.70;1.00;;;;;;5116570;28;20039;-30
2022/04/12 07:29:39;;;;;;;13.07;8.65;;;8.70;1.00;;;;;;5116217;28;20096;-30
2022/04/12 07:32:06;;;;;;;15.98;9.02;;;8.80;1.00;;;;;;5134631;28;20043;-29
2022/04/12 07:34:31;;;;;;;10.98;8.30;;;8.90;1.00;;;;;;5116487;28;20047;-29
2022/04/12 07:36:57;;;;;;;15.50;8.40;;;8.90;1.00;;;;;;5135175;28;20085;-29
2022/04/12 07:39:24;;;;;;;14.98;8.40;;;9.00;1.00;;;;;;5134439;28;20133;-29
2022/04/12 07:41:51;;;;;;;14.48;8.70;;;9.00;1.00;;;;;;5126349;28;20194;-29
2022/04/12 07:44:21;;;;;;;14.07;8.63;;;9.10;1.00;;;;;;5113825;28;20048;-29
2022/04/12 07:46:47;;;;;;;12.32;8.10;;;9.20;1.00;;;;;;5113911;28;20044;-30
2022/04/12 07:49:17;;;;;;;14.13;8.95;;;9.30;1.00;;;;;;5078891;28;20093;-29
2022/04/12 07:51:43;;;;;;;15.60;8.70;;;9.40;1.00;;;;;;5114590;28;20048;-29
2022/04/12 07:54:09;;;;;;;13.13;8.50;;;9.40;1.00;;;;;;5114033;28;20116;-29
2022/04/12 07:56:34;;;;;;;13.23;7.65;;;9.50;1.00;;;;;;5113792;28;20485;-30
2022/04/12 07:59:01;;;;;;;11.98;8.20;;;9.60;1.00;;;;;;5099670;28;20047;-29
2022/04/12 08:01:27;;;;;;;15.73;7.93;;;9.70;1.00;;;;;;5099561;28;20040;-29
2022/04/12 08:03:53;;;;;;;11.98;8.25;;;9.80;1.00;;;;;;5100406;28;20051;-29
2022/04/12 08:06:19;;;;;;;16.65;8.05;;;9.90;1.00;;;;;;5099444;28;20044;-30
2022/04/12 08:08:44;;;;;;;13.82;8.20;;;10.00;1.00;;;;;;5118234;28;20063;-30
2022/04/12 08:11:10;;;;;;;11.55;7.93;;;10.10;1.00;;;;;;5099592;28;20051;-30
2022/04/12 08:13:36;;;;;;;14.13;7.80;;;10.20;1.00;;;;;;5117654;28;20087;-30
2022/04/12 08:16:02;;;;;;;12.98;8.30;;;10.40;1.00;;;;;;5117401;28;20127;-29
2022/04/12 08:18:28;;;;;;;12.10;7.60;;;10.60;1.00;;;;;;5117523;28;20047;-30
2022/04/12 08:20:54;;;;;;;11.70;7.57;;;10.70;1.00;;;;;;5117336;28;20097;-29
2022/04/12 08:23:24;;;;;;;12.68;7.95;;;10.80;1.00;;;;;;5099885;28;20040;-29
2022/04/12 08:25:50;;;;;;;14.02;9.10;;;10.90;99.90;;;;;;5117229;28;20040;-29
2022/04/12 08:28:16;;;;;;;12.80;9.07;;;11.10;99.90;;;;;;5117329;28;20054;-30
2022/04/12 08:30:42;;;;;;;13.20;8.98;;;11.20;99.90;;;;;;5117193;28;20044;-30
2022/04/12 08:33:08;;;;;;;12.32;8.73;;;11.50;99.90;;;;;;5117117;28;20043;-29
2022/04/12 08:35:34;;;;;;;12.18;8.18;;;11.70;99.90;;;;;;5117140;28;20043;-30
2022/04/12 08:38:01;;;;;;;13.35;8.73;;;11.90;99.90;;;;;;5098861;28;20043;-29
2022/04/12 08:40:26;;;;;;;12.68;8.23;;;12.10;99.90;;;;;;5117014;28;20112;-29
2022/04/12 08:42:57;;;;;;;9.85;7.78;;;12.30;99.90;;;;;;5117068;28;20083;-30
2022/04/12 08:45:25;;;;;;;13.40;8.52;;;12.40;99.90;;;;;;5117459;28;20047;-29
2022/04/12 08:47:52;;;;;;;15.38;8.40;;;12.40;99.90;;;;;;5098717;28;20043;-29
2022/04/12 08:50:19;;;;;;;12.40;8.73;;;12.60;99.90;;;;;;5117004;28;20440;-28
2022/04/12 08:52:46;;;;;;;12.00;8.00;;;12.70;99.90;;;;;;5099596;28;20074;-28
2022/04/12 08:55:11;;;;;;;9.98;7.70;;;12.80;99.90;;;;;;5098536;28;20040;-28
2022/04/12 08:57:38;;;;;;;12.35;7.80;;;12.80;99.90;;;;;;5098534;28;20043;-31
2022/04/12 09:00:06;;;;;;;14.50;7.97;;;12.80;99.90;;;;;;5098500;28;20054;-28
2022/04/12 09:02:32;;;;;;;12.15;7.95;;;12.80;99.90;;;;;;5098550;28;20047;-28
2022/04/12 09:04:58;;;;;;;13.65;8.13;;;12.90;99.90;;;;;;5116418;28;20052;-28
2022/04/12 09:07:26;;;;;;;11.43;7.57;;;13.00;99.90;;;;;;5116508;28;20043;-28
2022/04/12 09:09:52;;;;;;;12.05;8.20;;;13.30;99.90;;;;;;5097156;28;20044;-28
2022/04/12 09:12:18;;;;;;;10.13;7.47;;;13.80;99.90;;;;;;5116510;28;20549;-29
2022/04/12 09:14:54;;;;;;;9.70;7.68;;;14.10;99.90;;;;;;5116957;28;20127;-28
2022/04/12 09:17:37;;;;;;;9.60;7.47;;;14.50;99.90;;;;;;5099205;28;20094;-29
2022/04/12 09:20:18;;;;;;;13.80;7.68;;;14.80;99.90;;;;;;5116902;28;20433;-28
2022/04/12 09:22:46;;;;;;;12.80;8.60;;;15.30;99.90;;;;;;5098496;28;20051;-29
2022/04/12 09:25:14;;;;;;;12.30;8.82;;;15.40;99.90;;;;;;5064229;28;20048;-28
2022/04/12 09:27:44;;;;;;;9.77;7.15;;;16.10;99.90;;;;;;5116196;28;20047;-28
2022/04/12 09:30:12;;;;;;;10.93;7.72;;;16.40;99.90;;;;;;5098565;28;20048;-28
2022/04/12 09:32:40;;;;;;;11.65;7.95;;;16.80;20.10;;;;;;5115751;28;20435;-28
2022/04/12 09:35:12;;;;;;;14.55;8.68;;;17.30;54.90;;;;;;5097972;28;20040;-28
2022/04/12 09:37:40;;;;;;;9.32;6.95;;;17.30;3.60;;;;;;5116260;28;20047;-28
2022/04/12 09:40:14;;;;;;;15.98;8.75;;;17.50;1.00;;;;;;5116821;28;20119;-28
2022/04/12 09:42:45;;;;;;;9.57;7.25;;;17.60;1.00;;;;;;5115884;28;20537;-28
2022/04/12 09:45:30;;;;;;;10.43;7.82;;;18.00;1.00;;;;;;5097511;28;20050;-28
2022/04/12 09:47:58;;;;;;;10.25;7.50;;;18.20;1.00;;;;;;5081223;28;20081;-28
2022/04/12 09:50:26;;;;;;;10.43;7.03;;;18.30;1.00;;;;;;5116370;28;20075;-28
2022/04/12 09:53:00;;;;;;;10.70;6.85;;;18.60;1.00;;;;;;5097778;28;20048;-28
2022/04/12 09:55:34;;;;;;;12.27;8.38;;;18.90;1.00;;;;;;5115589;28;20047;-28
2022/04/12 09:58:06;;;;;;;11.55;8.38;;;19.10;1.00;;;;;;5116367;28;20047;-29
2022/04/12 10:00:33;;;;;;;11.52;7.45;;;19.00;1.00;;;;;;5097402;28;20058;-28
2022/04/12 10:03:04;;;;;;;10.65;7.60;;;19.10;1.00;;;;;;5124619;27;20042;-28
2022/04/12 10:05:33;;;;;;;11.60;7.85;;;19.20;1.00;;;;;;5115034;28;20477;-28
2022/04/12 10:08:01;;;;;;;10.35;7.32;;;19.20;1.00;;;;;;5115316;28;20043;-28
2022/04/12 10:10:30;;;;;;;16.02;8.10;;;18.80;1.00;;;;;;5097126;28;20043;-29
2022/04/12 10:12:59;;;;;;;9.77;7.63;;;18.60;1.00;;;;;;5116335;27;20050;-28
2022/04/12 10:15:31;;;;;;;10.85;7.90;;;18.40;1.00;;;;;;5114702;27;20063;-28
2022/04/12 10:18:02;;;;;;;9.13;7.65;;;18.30;1.00;;;;;;5101194;27;20048;-28
2022/04/12 10:20:28;;;;;;;11.25;7.95;;;18.60;1.00;;;;;;5124315;27;20039;-29
2022/04/12 10:22:58;;;;;;;10.50;7.90;;;18.80;1.00;;;;;;5080258;27;20130;-28
2022/04/12 10:25:30;;;;;;;10.27;8.07;;;19.10;1.00;;;;;;5122379;27;20043;-28
2022/04/12 10:28:02;;;;;;;10.18;8.02;;;19.50;1.00;;;;;;5105297;27;20130;-28
2022/04/12 10:30:33;;;;;;;10.43;7.45;;;19.80;1.00;;;;;;5135570;27;20076;-28
2022/04/12 10:33:09;;;;;;;11.07;7.50;;;20.00;1.00;;;;;;5116857;27;20050;-28
2022/04/12 10:35:47;;;;;;;11.90;7.53;;;20.20;1.00;;;;;;5131058;27;20063;-28
2022/04/12 10:38:15;;;;;;;9.40;7.47;;;20.00;1.00;;;;;;5119409;27;20040;-29
2022/04/12 10:40:46;;;;;;;9.95;7.30;;;20.10;1.00;;;;;;5091546;27;20039;-28
2022/04/12 10:43:24;;;;;;;12.00;7.40;;;20.10;1.00;;;;;;5116398;27;20148;-28
2022/04/12 10:45:56;;;;;;;10.23;7.65;;;20.40;1.00;;;;;;5098839;27;20031;-28
2022/04/12 10:48:24;;;;;;;12.25;7.68;;;20.50;1.00;;;;;;5114871;27;20043;-29
2022/04/12 10:50:52;;;;;;;11.77;7.70;;;20.60;1.00;;;;;;5131306;27;20035;-28
2022/04/12 10:53:39;;;;;;;9.20;7.00;;;20.70;1.00;;;;;;5135103;27;20055;-28
2022/04/12 10:56:11;;;;;;;10.10;7.47;;;21.10;1.00;;;;;;5116844;27;20075;-29
2022/04/12 10:58:38;;;;;;;8.30;7.25;;;21.00;1.00;;;;;;5115104;28;20048;-28
2022/04/12 11:01:05;;;;;;;10.30;7.40;;;21.20;1.00;;;;;;5109654;27;20491;-28
2022/04/12 11:03:51;;;;;;;11.63;7.57;;;21.10;1.00;;;;;;5133851;27;20043;-28
2022/04/12 11:06:39;;;;;;;10.32;7.70;;;21.10;1.00;;;;;;5102202;28;20343;-28
2022/04/12 11:09:11;;;;;;;13.40;8.43;;;21.20;1.00;;;;;;5099107;27;20308;-28
2022/04/12 11:11:47;;;;;;;9.18;7.57;;;21.10;1.00;;;;;;5119764;27;20118;-28
2022/04/12 11:14:36;;;;;;;8.45;7.40;;;21.30;1.00;;;;;;5114355;28;20452;-28
2022/04/12 11:17:07;;;;;;;10.50;7.60;;;21.10;1.00;;;;;;5102399;28;20086;-28
2022/04/12 11:19:54;;;;;;;10.57;7.93;;;20.60;1.00;;;;;;5113552;28;20544;-28
2022/04/12 11:22:23;;;;;;;9.43;7.78;;;20.20;1.00;;;;;;5121955;27;20126;-29
2022/04/12 11:25:14;;;;;;;9.43;7.32;;;19.70;1.00;;;;;;5095880;28;20130;-28
2022/04/12 11:27:40;;;;;;;9.68;7.57;;;19.50;1.00;;;;;;5106065;28;20480;-28
2022/04/12 11:30:06;;;;;;;9.27;7.20;;;19.70;1.00;;;;;;5130199;28;20074;-28
2022/04/12 11:32:32;;;;;;;11.35;7.95;;;19.90;1.00;;;;;;5121039;27;20148;-28
2022/04/12 11:34:59;;;;;;;8.63;7.70;;;19.90;1.00;;;;;;5133462;28;20043;-28
2022/04/12 11:37:25;;;;;;;13.18;8.52;;;19.90;1.00;;;;;;5116819;28;20054;-29
2022/04/12 11:39:50;;;;;;;9.93;7.53;;;19.90;1.00;;;;;;5107385;28;20384;-28
2022/04/12 11:42:17;;;;;;;11.18;7.32;;;19.70;1.00;;;;;;5103235;28;20096;-28
2022/04/12 11:44:54;;;;;;;10.23;7.90;;;19.80;1.00;;;;;;5134258;28;20045;-29
2022/04/12 11:47:26;;;;;;;10.57;7.63;;;20.10;1.00;;;;;;5115530;28;20399;-28
2022/04/12 11:49:51;;;;;;;12.95;8.25;;;20.10;1.00;;;;;;5113851;28;20039;-28
2022/04/12 11:52:19;;;;;;;13.25;9.18;;;19.90;1.00;;;;;;5113523;28;20494;-28
2022/04/12 11:54:47;;;;;;;11.77;8.93;;;19.80;1.00;;;;;;5114585;28;20410;-28
2022/04/12 11:57:21;;;;;;;12.50;8.50;;;19.60;1.00;;;;;;5124900;28;20122;-28
2022/04/12 11:59:50;;;;;;;10.70;7.80;;;19.60;1.00;;;;;;5133213;28;20046;-29
2022/04/12 12:02:19;;;;;;;11.20;8.07;;;19.60;1.00;;;;;;5134290;28;20047;-29
2022/04/12 12:04:56;;;;;;;13.60;7.95;;;19.80;1.00;;;;;;5098053;28;20089;-28
2022/04/12 12:07:22;;;;;;;9.82;8.10;;;20.20;1.00;;;;;;5134862;28;20035;-28
2022/04/12 12:09:56;;;;;;;11.32;8.20;;;20.10;1.00;;;;;;5113765;28;20500;-28
2022/04/12 12:12:42;;;;;;;11.52;8.45;;;20.30;1.00;;;;;;5134174;28;20404;-28
2022/04/12 12:15:15;;;;;;;10.13;7.80;;;20.50;1.00;;;;;;5131431;28;20071;-28
2022/04/12 12:17:44;;;;;;;10.65;7.95;;;20.30;1.00;;;;;;5106178;28;20155;-28
2022/04/12 12:20:11;;;;;;;10.25;8.32;;;20.20;1.00;;;;;;5133530;28;20071;-28
2022/04/12 12:22:41;;;;;;;10.40;8.98;;;20.20;1.00;;;;;;5115829;28;20400;-28
2022/04/12 12:25:07;;;;;;;8.85;7.20;;;20.20;1.00;;;;;;5127590;28;20050;-29
2022/04/12 12:27:38;;;;;;;11.98;8.27;;;20.50;1.00;;;;;;5095304;28;20051;-28
2022/04/12 12:30:10;;;;;;;12.52;7.95;;;20.60;1.00;;;;;;5113174;28;20044;-28
2022/04/12 12:32:41;;;;;;;9.20;7.43;;;20.70;1.00;;;;;;5126881;28;20043;-28
2022/04/12 12:35:12;;;;;;;13.07;8.13;;;20.80;1.00;;;;;;5130600;28;20498;-28
2022/04/12 12:37:45;;;;;;;9.15;7.68;;;20.80;1.00;;;;;;5113317;28;20066;-28
2022/04/12 12:40:26;;;;;;;8.32;6.97;;;20.60;1.00;;;;;;5131452;28;20066;-28
2022/04/12 12:42:54;;;;;;;11.65;7.63;;;20.40;1.00;;;;;;5117235;28;20483;-28
2022/04/12 12:45:25;;;;;;;10.52;7.88;;;20.10;1.00;;;;;;5099524;27;20511;-28
2022/04/12 12:47:56;;;;;;;13.10;7.85;;;19.90;1.00;;;;;;5132939;27;20051;-28
2022/04/12 12:50:24;;;;;;;13.30;8.02;;;19.90;1.00;;;;;;5116325;27;20122;-28
2022/04/12 12:52:59;;;;;;;8.85;7.15;;;20.00;1.00;;;;;;5081713;28;20047;-28
2022/04/12 12:55:31;;;;;;;11.45;7.78;;;20.00;1.00;;;;;;5116876;28;20054;-29